sensor_id;sensor_type;location;lat;lon;timestamp;pressure;altitude;pressure_sealevel;temperature
84287;BMP280;74445;55.252;61.092;2024-03-17T00:00:24;142916.94;;;-9.05
84287;BMP280;74445;55.252;61.092;2024-03-17T00:02:50;142927.78;;;-9.01
84287;BMP280;74445;55.252;61.092;2024-03-17T00:05:16;142930.19;;;-9.00
84287;BMP280;74445;55.252;61.092;2024-03-17T00:07:44;142928.97;;;-9.00
84287;BMP280;74445;55.252;61.092;2024-03-17T00:10:11;142922.97;;;-9.03
84287;BMP280;74445;55.252;61.092;2024-03-17T00:12:38;142900.06;;;-9.12
84287;BMP280;74445;55.252;61.092;2024-03-17T00:15:04;142872.41;;;-9.24
84287;BMP280;74445;55.252;61.092;2024-03-17T00:17:31;142829.03;;;-9.42
84287;BMP280;74445;55.252;61.092;2024-03-17T00:19:59;142782.06;;;-9.61
84287;BMP280;74445;55.252;61.092;2024-03-17T00:22:31;142744.78;;;-9.77
84287;BMP280;74445;55.252;61.092;2024-03-17T00:25:01;142703.84;;;-9.93
84287;BMP280;74445;55.252;61.092;2024-03-17T00:27:29;142667.81;;;-10.08
84287;BMP280;74445;55.252;61.092;2024-03-17T00:29:55;142632.94;;;-10.23
84287;BMP280;74445;55.252;61.092;2024-03-17T00:32:22;142601.66;;;-10.36
84287;BMP280;74445;55.252;61.092;2024-03-17T00:34:49;142577.59;;;-10.46
84287;BMP280;74445;55.252;61.092;2024-03-17T00:37:15;142546.31;;;-10.59
84287;BMP280;74445;55.252;61.092;2024-03-17T00:39:41;142524.69;;;-10.68
84287;BMP280;74445;55.252;61.092;2024-03-17T00:42:07;142507.84;;;-10.75
84287;BMP280;74445;55.252;61.092;2024-03-17T00:44:33;142503.03;;;-10.77
84287;BMP280;74445;55.252;61.092;2024-03-17T00:47:01;142489.78;;;-10.82
84287;BMP280;74445;55.252;61.092;2024-03-17T00:49:27;142497.00;;;-10.79
84287;BMP280;74445;55.252;61.092;2024-03-17T00:51:53;142504.22;;;-10.76
84287;BMP280;74445;55.252;61.092;2024-03-17T00:54:19;142513.84;;;-10.72
84287;BMP280;74445;55.252;61.092;2024-03-17T00:56:45;142531.91;;;-10.65
84287;BMP280;74445;55.252;61.092;2024-03-17T00:59:11;142553.53;;;-10.56
84287;BMP280;74445;55.252;61.092;2024-03-17T01:01:37;142564.34;;;-10.51
84287;BMP280;74445;55.252;61.092;2024-03-17T01:04:03;142582.41;;;-10.44
84287;BMP280;74445;55.252;61.092;2024-03-17T01:09:25;142649.72;;;-10.16
84287;BMP280;74445;55.252;61.092;2024-03-17T01:11:51;142683.44;;;-10.02
84287;BMP280;74445;55.252;61.092;2024-03-17T01:14:16;142717.06;;;-9.88
84287;BMP280;74445;55.252;61.092;2024-03-17T01:16:43;142742.38;;;-9.78
84287;BMP280;74445;55.252;61.092;2024-03-17T01:19:09;142758.00;;;-9.71
84287;BMP280;74445;55.252;61.092;2024-03-17T01:21:35;142770.03;;;-9.66
84287;BMP280;74445;55.252;61.092;2024-03-17T01:24:02;142786.88;;;-9.59
84287;BMP280;74445;55.252;61.092;2024-03-17T01:26:28;142809.78;;;-9.50
84287;BMP280;74445;55.252;61.092;2024-03-17T01:28:54;142824.22;;;-9.44
84287;BMP280;74445;55.252;61.092;2024-03-17T01:31:20;142838.69;;;-9.38
84287;BMP280;74445;55.252;61.092;2024-03-17T01:33:46;142848.31;;;-9.34
84287;BMP280;74445;55.252;61.092;2024-03-17T01:36:12;142863.94;;;-9.27
84287;BMP280;74445;55.252;61.092;2024-03-17T01:38:38;142870.00;;;-9.25
84287;BMP280;74445;55.252;61.092;2024-03-17T01:41:04;142871.16;;;-9.24
84287;BMP280;74445;55.252;61.092;2024-03-17T01:43:31;142870.00;;;-9.25
84287;BMP280;74445;55.252;61.092;2024-03-17T01:45:58;142873.56;;;-9.23
84287;BMP280;74445;55.252;61.092;2024-03-17T01:48:25;142880.81;;;-9.20
84287;BMP280;74445;55.252;61.092;2024-03-17T01:50:55;142889.25;;;-9.17
84287;BMP280;74445;55.252;61.092;2024-03-17T01:53:22;142898.88;;;-9.13
84287;BMP280;74445;55.252;61.092;2024-03-17T01:55:52;142903.72;;;-9.11
84287;BMP280;74445;55.252;61.092;2024-03-17T01:58:20;142912.13;;;-9.07
84287;BMP280;74445;55.252;61.092;2024-03-17T02:00:50;142926.56;;;-9.01
84287;BMP280;74445;55.252;61.092;2024-03-17T02:03:17;142941.03;;;-8.95
84287;BMP280;74445;55.252;61.092;2024-03-17T02:05:44;142966.28;;;-8.85
84287;BMP280;74445;55.252;61.092;2024-03-17T02:08:11;142983.16;;;-8.78
84287;BMP280;74445;55.252;61.092;2024-03-17T02:10:37;142996.44;;;-8.72
84287;BMP280;74445;55.252;61.092;2024-03-17T02:13:04;143004.84;;;-8.69
84287;BMP280;74445;55.252;61.092;2024-03-17T02:15:33;143003.66;;;-8.69
84287;BMP280;74445;55.252;61.092;2024-03-17T02:18:19;142997.63;;;-8.72
84287;BMP280;74445;55.252;61.092;2024-03-17T02:20:45;142996.44;;;-8.72
84287;BMP280;74445;55.252;61.092;2024-03-17T02:23:27;143022.94;;;-8.62
84287;BMP280;74445;55.252;61.092;2024-03-17T02:25:54;143053.03;;;-8.49
84287;BMP280;74445;55.252;61.092;2024-03-17T02:28:20;143178.34;;;-7.97
84287;BMP280;74445;55.252;61.092;2024-03-17T02:30:47;143348.38;;;-7.27
84287;BMP280;74445;55.252;61.092;2024-03-17T02:33:13;143644.06;;;-6.05
84287;BMP280;74445;55.252;61.092;2024-03-17T02:35:40;143984.81;;;-4.65
84287;BMP280;74445;55.252;61.092;2024-03-17T02:38:06;144317.50;;;-3.28
84287;BMP280;74445;55.252;61.092;2024-03-17T02:40:40;144657.88;;;-1.88
84287;BMP280;74445;55.252;61.092;2024-03-17T02:43:06;144959.84;;;-0.64
84287;BMP280;74445;55.252;61.092;2024-03-17T02:45:32;145237.81;;;0.50
84287;BMP280;74445;55.252;61.092;2024-03-17T02:47:59;145467.44;;;1.44
84287;BMP280;74445;55.252;61.092;2024-03-17T02:50:26;145652.25;;;2.20
84287;BMP280;74445;55.252;61.092;2024-03-17T02:52:52;145781.13;;;2.73
84287;BMP280;74445;55.252;61.092;2024-03-17T02:55:19;145900.41;;;3.22
84287;BMP280;74445;55.252;61.092;2024-03-17T02:57:45;146041.63;;;3.79
84287;BMP280;74445;55.252;61.092;2024-03-17T03:00:11;146224.38;;;4.54
84287;BMP280;74445;55.252;61.092;2024-03-17T03:02:39;146433.97;;;5.40
84287;BMP280;74445;55.252;61.092;2024-03-17T03:05:05;146653.59;;;6.29
84287;BMP280;74445;55.252;61.092;2024-03-17T03:07:31;146885.50;;;7.24
84287;BMP280;74445;55.252;61.092;2024-03-17T03:09:57;147126.19;;;8.22
84287;BMP280;74445;55.252;61.092;2024-03-17T03:12:23;147357.19;;;9.16
84287;BMP280;74445;55.252;61.092;2024-03-17T03:14:49;147560.25;;;9.99
84287;BMP280;74445;55.252;61.092;2024-03-17T03:17:16;147750.00;;;10.76
84287;BMP280;74445;55.252;61.092;2024-03-17T03:19:42;147906.75;;;11.40
84287;BMP280;74445;55.252;61.092;2024-03-17T03:22:08;148064.81;;;12.04
84287;BMP280;74445;55.252;61.092;2024-03-17T03:24:34;148183.69;;;12.53
84287;BMP280;74445;55.252;61.092;2024-03-17T03:27:00;148290.38;;;12.96
84287;BMP280;74445;55.252;61.092;2024-03-17T03:29:27;148361.53;;;13.25
84287;BMP280;74445;55.252;61.092;2024-03-17T03:31:53;148516.09;;;13.88
84287;BMP280;74445;55.252;61.092;2024-03-17T03:34:19;148663.41;;;14.47
84287;BMP280;74445;55.252;61.092;2024-03-17T03:36:45;148821.78;;;15.12
84287;BMP280;74445;55.252;61.092;2024-03-17T03:39:11;148985.19;;;15.78
84287;BMP280;74445;55.252;61.092;2024-03-17T03:41:38;149073.66;;;16.14
84287;BMP280;74445;55.252;61.092;2024-03-17T03:44:05;149176.97;;;16.56
84287;BMP280;74445;55.252;61.092;2024-03-17T03:46:31;149256.84;;;16.88
84287;BMP280;74445;55.252;61.092;2024-03-17T03:48:57;149314.69;;;17.11
84287;BMP280;74445;55.252;61.092;2024-03-17T03:51:23;149382.34;;;17.39
84287;BMP280;74445;55.252;61.092;2024-03-17T03:53:50;149482.00;;;17.79
84287;BMP280;74445;55.252;61.092;2024-03-17T03:56:17;149538.56;;;18.02
84287;BMP280;74445;55.252;61.092;2024-03-17T03:58:43;149621.09;;;18.35
84287;BMP280;74445;55.252;61.092;2024-03-17T04:01:12;149719.56;;;18.75
84287;BMP280;74445;55.252;61.092;2024-03-17T04:03:38;149856.28;;;19.30
84287;BMP280;74445;55.252;61.092;2024-03-17T04:06:09;150038.63;;;20.04
84287;BMP280;74445;55.252;61.092;2024-03-17T04:08:38;150140.91;;;20.46
84287;BMP280;74445;55.252;61.092;2024-03-17T04:11:08;150265.41;;;20.96
84287;BMP280;74445;55.252;61.092;2024-03-17T04:13:34;150391.19;;;21.47
84287;BMP280;74445;55.252;61.092;2024-03-17T04:16:04;150523.19;;;22.00
84287;BMP280;74445;55.252;61.092;2024-03-17T04:18:32;150592.28;;;22.28
84287;BMP280;74445;55.252;61.092;2024-03-17T04:21:02;150682.44;;;22.64
84287;BMP280;74445;55.252;61.092;2024-03-17T04:23:29;150740.44;;;22.88
84287;BMP280;74445;55.252;61.092;2024-03-17T04:25:59;150837.97;;;23.27
84287;BMP280;74445;55.252;61.092;2024-03-17T04:28:26;150920.72;;;23.60
84287;BMP280;74445;55.252;61.092;2024-03-17T04:30:53;151012.16;;;23.97
84287;BMP280;74445;55.252;61.092;2024-03-17T04:33:19;151080.06;;;24.25
84287;BMP280;74445;55.252;61.092;2024-03-17T04:35:45;151119.63;;;24.41
84287;BMP280;74445;55.252;61.092;2024-03-17T04:38:12;151211.09;;;24.77
84287;BMP280;74445;55.252;61.092;2024-03-17T04:40:40;151214.78;;;24.79
84287;BMP280;74445;55.252;61.092;2024-03-17T04:43:09;151292.66;;;25.10
84287;BMP280;74445;55.252;61.092;2024-03-17T04:45:35;151339.69;;;25.29
84287;BMP280;74445;55.252;61.092;2024-03-17T04:48:02;151272.88;;;25.02
84287;BMP280;74445;55.252;61.092;2024-03-17T04:50:28;151248.16;;;24.92
84287;BMP280;74445;55.252;61.092;2024-03-17T04:52:58;151903.81;;;27.56
84287;BMP280;74445;55.252;61.092;2024-03-17T04:55:25;151424.94;;;25.64
84287;BMP280;74445;55.252;61.092;2024-03-17T04:57:51;151314.97;;;25.19
84287;BMP280;74445;55.252;61.092;2024-03-17T05:00:17;151199.94;;;24.73
84287;BMP280;74445;55.252;61.092;2024-03-17T05:02:45;151272.88;;;25.02
84287;BMP280;74445;55.252;61.092;2024-03-17T05:05:11;151225.91;;;24.83
84287;BMP280;74445;55.252;61.092;2024-03-17T05:07:37;151267.94;;;25.00
84287;BMP280;74445;55.252;61.092;2024-03-17T05:10:05;151246.91;;;24.92
84287;BMP280;74445;55.252;61.092;2024-03-17T05:12:32;151376.75;;;25.44
84287;BMP280;74445;55.252;61.092;2024-03-17T05:14:58;151464.50;;;25.80
84287;BMP280;74445;55.252;61.092;2024-03-17T05:17:24;151490.50;;;25.90
84287;BMP280;74445;55.252;61.092;2024-03-17T05:19:50;151552.34;;;26.15
84287;BMP280;74445;55.252;61.092;2024-03-17T05:22:17;151572.13;;;26.23
84287;BMP280;74445;55.252;61.092;2024-03-17T05:24:42;151609.22;;;26.38
84287;BMP280;74445;55.252;61.092;2024-03-17T05:27:08;151666.19;;;26.61
84287;BMP280;74445;55.252;61.092;2024-03-17T05:29:34;151742.88;;;26.92
84287;BMP280;74445;55.252;61.092;2024-03-17T05:32:04;151746.56;;;26.93
84287;BMP280;74445;55.252;61.092;2024-03-17T05:34:31;151822.13;;;27.24
84287;BMP280;74445;55.252;61.092;2024-03-17T05:36:58;151856.78;;;27.37
84287;BMP280;74445;55.252;61.092;2024-03-17T05:39:24;151896.38;;;27.53
84287;BMP280;74445;55.252;61.092;2024-03-17T05:41:51;151963.25;;;27.80
84287;BMP280;74445;55.252;61.092;2024-03-17T05:44:19;152030.06;;;28.07
84287;BMP280;74445;55.252;61.092;2024-03-17T05:46:45;152028.91;;;28.17
84287;BMP280;74445;55.252;61.092;2024-03-17T05:49:11;152049.88;;;28.15
84287;BMP280;74445;55.252;61.092;2024-03-17T05:51:37;152001.56;;;28.19
84287;BMP280;74445;55.252;61.092;2024-03-17T05:54:03;151859.38;;;28.27
84287;BMP280;74445;55.252;61.092;2024-03-17T05:56:29;151963.25;;;27.80
84287;BMP280;74445;55.252;61.092;2024-03-17T05:58:56;151880.25;;;27.47
84287;BMP280;74445;55.252;61.092;2024-03-17T06:01:22;151848.09;;;27.34
84287;BMP280;74445;55.252;61.092;2024-03-17T06:03:49;151869.16;;;27.42
84287;BMP280;74445;55.252;61.092;2024-03-17T06:06:15;151917.41;;;27.62
84287;BMP280;74445;55.252;61.092;2024-03-17T06:08:41;151732.97;;;26.88
84287;BMP280;74445;55.252;61.092;2024-03-17T06:11:08;151799.84;;;27.15
84287;BMP280;74445;55.252;61.092;2024-03-17T06:13:34;151822.13;;;27.24
84287;BMP280;74445;55.252;61.092;2024-03-17T06:16:03;151772.56;;;27.04
84287;BMP280;74445;55.252;61.092;2024-03-17T06:18:31;151757.72;;;26.98
84287;BMP280;74445;55.252;61.092;2024-03-17T06:20:58;151724.31;;;26.84
84287;BMP280;74445;55.252;61.092;2024-03-17T06:23:25;151641.44;;;26.51
84287;BMP280;74445;55.252;61.092;2024-03-17T06:25:55;151662.50;;;26.59
84287;BMP280;74445;55.252;61.092;2024-03-17T06:28:22;151725.56;;;26.85
84287;BMP280;74445;55.252;61.092;2024-03-17T06:30:58;151886.47;;;27.49
84287;BMP280;74445;55.252;61.092;2024-03-17T06:33:26;151685.97;;;26.69
84287;BMP280;74445;55.252;61.092;2024-03-17T06:35:54;151815.91;;;27.21
84287;BMP280;74445;55.252;61.092;2024-03-17T06:38:21;151917.41;;;27.62
84287;BMP280;74445;55.252;61.092;2024-03-17T06:40:49;151898.84;;;27.54
84287;BMP280;74445;55.252;61.092;2024-03-17T06:43:16;151770.09;;;27.03
84287;BMP280;74445;55.252;61.092;2024-03-17T06:45:42;151723.09;;;26.84
84287;BMP280;74445;55.252;61.092;2024-03-17T06:48:08;151694.66;;;26.72
84287;BMP280;74445;55.252;61.092;2024-03-17T06:50:34;151578.34;;;26.25
84287;BMP280;74445;55.252;61.092;2024-03-17T06:53:00;151572.13;;;26.23
84287;BMP280;74445;55.252;61.092;2024-03-17T06:55:26;151586.97;;;26.29
84287;BMP280;74445;55.252;61.092;2024-03-17T06:57:53;151539.97;;;26.10
84287;BMP280;74445;55.252;61.092;2024-03-17T07:00:19;151619.13;;;26.42
84287;BMP280;74445;55.252;61.092;2024-03-17T07:02:51;151533.81;;;26.07
84287;BMP280;74445;55.252;61.092;2024-03-17T07:05:17;151454.63;;;25.76
84287;BMP280;74445;55.252;61.092;2024-03-17T07:07:44;151426.16;;;25.64
84287;BMP280;74445;55.252;61.092;2024-03-17T07:10:11;151371.81;;;25.42
84287;BMP280;74445;55.252;61.092;2024-03-17T07:12:38;151125.75;;;24.43
84287;BMP280;74445;55.252;61.092;2024-03-17T07:15:05;151201.22;;;24.73
84287;BMP280;74445;55.252;61.092;2024-03-17T07:17:33;151187.59;;;24.68
84287;BMP280;74445;55.252;61.092;2024-03-17T07:19:59;151130.72;;;24.45
84287;BMP280;74445;55.252;61.092;2024-03-17T07:22:25;151080.06;;;24.25
84287;BMP280;74445;55.252;61.092;2024-03-17T07:24:55;151050.44;;;24.13
84287;BMP280;74445;55.252;61.092;2024-03-17T07:27:27;150920.72;;;23.60
84287;BMP280;74445;55.252;61.092;2024-03-17T07:29:53;150783.59;;;23.05
84287;BMP280;74445;55.252;61.092;2024-03-17T07:32:19;150578.75;;;22.22
84287;BMP280;74445;55.252;61.092;2024-03-17T07:34:45;150262.94;;;20.95
84287;BMP280;74445;55.252;61.092;2024-03-17T07:37:11;149874.72;;;19.38
84287;BMP280;74445;55.252;61.092;2024-03-17T07:39:37;149627.22;;;18.38
84287;BMP280;74445;55.252;61.092;2024-03-17T07:42:03;149408.19;;;17.49
84287;BMP280;74445;55.252;61.092;2024-03-17T07:44:29;149140.09;;;16.41
84287;BMP280;74445;55.252;61.092;2024-03-17T07:47:01;148906.56;;;15.46
84287;BMP280;74445;55.252;61.092;2024-03-17T07:49:27;148756.72;;;14.85
84287;BMP280;74445;55.252;61.092;2024-03-17T07:51:53;148632.72;;;14.35
84287;BMP280;74445;55.252;61.092;2024-03-17T07:54:20;148579.91;;;14.13
84287;BMP280;74445;55.252;61.092;2024-03-17T07:56:46;148516.09;;;13.88
84287;BMP280;74445;55.252;61.092;2024-03-17T07:59:12;148521.00;;;13.90
84287;BMP280;74445;55.252;61.092;2024-03-17T08:01:42;148464.56;;;13.67
84287;BMP280;74445;55.252;61.092;2024-03-17T08:04:08;148426.56;;;13.51
84287;BMP280;74445;55.252;61.092;2024-03-17T08:06:34;148427.75;;;13.52
84287;BMP280;74445;55.252;61.092;2024-03-17T08:09:01;148343.16;;;13.17
84287;BMP280;74445;55.252;61.092;2024-03-17T08:11:27;148335.78;;;13.14
84287;BMP280;74445;55.252;61.092;2024-03-17T08:13:53;148302.66;;;13.01
84287;BMP280;74445;55.252;61.092;2024-03-17T08:16:21;148274.41;;;12.89
84287;BMP280;74445;55.252;61.092;2024-03-17T08:18:47;148256.00;;;12.82
84287;BMP280;74445;55.252;61.092;2024-03-17T08:21:13;148256.00;;;12.82
84287;BMP280;74445;55.252;61.092;2024-03-17T08:23:39;148229.06;;;12.71
84287;BMP280;74445;55.252;61.092;2024-03-17T08:26:08;148237.63;;;12.74
84287;BMP280;74445;55.252;61.092;2024-03-17T08:28:35;148205.75;;;12.62
84287;BMP280;74445;55.252;61.092;2024-03-17T08:31:02;148233.97;;;12.73
84287;BMP280;74445;55.252;61.092;2024-03-17T08:33:30;148171.44;;;12.48
84287;BMP280;74445;55.252;61.092;2024-03-17T08:36:01;148133.47;;;12.32
84287;BMP280;74445;55.252;61.092;2024-03-17T08:38:28;148131.00;;;12.31
84287;BMP280;74445;55.252;61.092;2024-03-17T08:40:56;148138.38;;;12.34
84287;BMP280;74445;55.252;61.092;2024-03-17T08:43:23;148160.44;;;12.43
84287;BMP280;74445;55.252;61.092;2024-03-17T08:46:03;148210.66;;;12.64
84287;BMP280;74445;55.252;61.092;2024-03-17T08:48:32;148160.44;;;12.43
84287;BMP280;74445;55.252;61.092;2024-03-17T08:51:00;148128.56;;;12.30
84287;BMP280;74445;55.252;61.092;2024-03-17T08:53:26;148121.19;;;12.27
84287;BMP280;74445;55.252;61.092;2024-03-17T08:55:52;148101.59;;;12.19
84287;BMP280;74445;55.252;61.092;2024-03-17T08:58:19;148072.19;;;12.07
84287;BMP280;74445;55.252;61.092;2024-03-17T09:00:45;148036.63;;;11.93
84287;BMP280;74445;55.252;61.092;2024-03-17T09:03:12;147985.16;;;11.72
84287;BMP280;74445;55.252;61.092;2024-03-17T09:05:39;147975.34;;;11.68
84287;BMP280;74445;55.252;61.092;2024-03-17T09:08:07;147931.19;;;11.50
84287;BMP280;74445;55.252;61.092;2024-03-17T09:10:43;147941.00;;;11.54
84287;BMP280;74445;55.252;61.092;2024-03-17T09:13:14;147893.25;;;11.35
84287;BMP280;74445;55.252;61.092;2024-03-17T09:16:00;147905.50;;;11.39
84287;BMP280;74445;55.252;61.092;2024-03-17T09:18:29;147841.81;;;11.14
84287;BMP280;74445;55.252;61.092;2024-03-17T09:21:06;147854.06;;;11.19
84287;BMP280;74445;55.252;61.092;2024-03-17T09:23:36;147789.19;;;10.92
84287;BMP280;74445;55.252;61.092;2024-03-17T09:26:05;147741.41;;;10.73
84287;BMP280;74445;55.252;61.092;2024-03-17T09:28:35;147682.66;;;10.49
84287;BMP280;74445;55.252;61.092;2024-03-17T09:31:02;147650.81;;;10.36
84287;BMP280;74445;55.252;61.092;2024-03-17T09:33:29;147605.56;;;10.17
84287;BMP280;74445;55.252;61.092;2024-03-17T09:35:57;147578.63;;;10.07
84287;BMP280;74445;55.252;61.092;2024-03-17T09:38:23;147528.44;;;9.86
84287;BMP280;74445;55.252;61.092;2024-03-17T09:40:50;147474.63;;;9.64
84287;BMP280;74445;55.252;61.092;2024-03-17T09:43:21;147419.53;;;9.42
84287;BMP280;74445;55.252;61.092;2024-03-17T09:45:49;147393.88;;;9.31
84287;BMP280;74445;55.252;61.092;2024-03-17T09:48:17;147364.53;;;9.19
84287;BMP280;74445;55.252;61.092;2024-03-17T09:50:54;147369.44;;;9.21
84287;BMP280;74445;55.252;61.092;2024-03-17T09:55:59;147348.63;;;9.13
84287;BMP280;74445;55.252;61.092;2024-03-17T09:58:26;147308.28;;;8.96
84287;BMP280;74445;55.252;61.092;2024-03-17T10:00:52;147285.09;;;8.87
84287;BMP280;74445;55.252;61.092;2024-03-17T10:03:48;147297.31;;;8.92
84287;BMP280;74445;55.252;61.092;2024-03-17T10:06:21;147232.50;;;8.66
84287;BMP280;74445;55.252;61.092;2024-03-17T10:08:53;147204.41;;;8.54
84287;BMP280;74445;55.252;61.092;2024-03-17T10:11:24;147184.84;;;8.46
84287;BMP280;74445;55.252;61.092;2024-03-17T10:14:01;147150.63;;;8.32
84287;BMP280;74445;55.252;61.092;2024-03-17T10:16:30;147102.88;;;8.13
84287;BMP280;74445;55.252;61.092;2024-03-17T10:19:10;147102.88;;;8.13
84287;BMP280;74445;55.252;61.092;2024-03-17T10:21:38;147060.16;;;7.95
84287;BMP280;74445;55.252;61.092;2024-03-17T10:24:06;147039.34;;;7.87
84287;BMP280;74445;55.252;61.092;2024-03-17T10:26:46;147034.47;;;7.85
84287;BMP280;74445;55.252;61.092;2024-03-17T10:29:35;147013.72;;;7.76
84287;BMP280;74445;55.252;61.092;2024-03-17T10:32:14;146950.22;;;7.51
84287;BMP280;74445;55.252;61.092;2024-03-17T10:34:40;146914.81;;;7.36
84287;BMP280;74445;55.252;61.092;2024-03-17T10:37:10;146873.28;;;7.19
84287;BMP280;74445;55.252;61.092;2024-03-17T10:39:38;146850.06;;;7.10
84287;BMP280;74445;55.252;61.092;2024-03-17T10:42:07;146831.78;;;7.02
84287;BMP280;74445;55.252;61.092;2024-03-17T10:44:41;146822.00;;;6.98
84287;BMP280;74445;55.252;61.092;2024-03-17T10:50:24;146786.59;;;6.84
84287;BMP280;74445;55.252;61.092;2024-03-17T10:52:51;146765.88;;;6.75
84287;BMP280;74445;55.252;61.092;2024-03-17T10:55:22;146765.88;;;6.75
84287;BMP280;74445;55.252;61.092;2024-03-17T10:57:50;146745.09;;;6.67
84287;BMP280;74445;55.252;61.092;2024-03-17T11:00:17;146741.44;;;6.65
84287;BMP280;74445;55.252;61.092;2024-03-17T11:02:47;146731.69;;;6.61
84287;BMP280;74445;55.252;61.092;2024-03-17T11:05:25;146713.34;;;6.54
84287;BMP280;74445;55.252;61.092;2024-03-17T11:07:52;146676.75;;;6.39
84287;BMP280;74445;55.252;61.092;2024-03-17T11:10:33;146664.59;;;6.34
84287;BMP280;74445;55.252;61.092;2024-03-17T11:13:00;146640.19;;;6.24
84287;BMP280;74445;55.252;61.092;2024-03-17T11:20:40;146596.25;;;6.06
84287;BMP280;74445;55.252;61.092;2024-03-17T11:23:07;146574.31;;;5.97
84287;BMP280;74445;55.252;61.092;2024-03-17T11:25:40;146568.19;;;5.95
84287;BMP280;74445;55.252;61.092;2024-03-17T11:28:08;146548.66;;;5.87
84287;BMP280;74445;55.252;61.092;2024-03-17T11:38:58;146516.91;;;5.74
84287;BMP280;74445;55.252;61.092;2024-03-17T11:41:44;146496.19;;;5.65
84287;BMP280;74445;55.252;61.092;2024-03-17T11:49:31;146430.34;;;5.38
84287;BMP280;74445;55.252;61.092;2024-03-17T11:52:03;146398.63;;;5.25
84287;BMP280;74445;55.252;61.092;2024-03-17T11:54:34;146384.00;;;5.19
84287;BMP280;74445;55.252;61.092;2024-03-17T11:57:04;146390.09;;;5.22
84287;BMP280;74445;55.252;61.092;2024-03-17T11:59:34;146346.25;;;5.04
84287;BMP280;74445;55.252;61.092;2024-03-17T12:02:01;146331.63;;;4.98
84287;BMP280;74445;55.252;61.092;2024-03-17T12:04:30;146303.56;;;4.87
84287;BMP280;74445;55.252;61.092;2024-03-17T12:06:58;146295.03;;;4.83
84287;BMP280;74445;55.252;61.092;2024-03-17T12:09:31;146282.84;;;4.78
84287;BMP280;74445;55.252;61.092;2024-03-17T12:12:02;146267.00;;;4.72
84287;BMP280;74445;55.252;61.092;2024-03-17T12:14:37;146236.56;;;4.59
84287;BMP280;74445;55.252;61.092;2024-03-17T12:17:04;146214.63;;;4.50
84287;BMP280;74445;55.252;61.092;2024-03-17T12:19:31;146198.75;;;4.44
84287;BMP280;74445;55.252;61.092;2024-03-17T12:22:01;146190.25;;;4.40
84287;BMP280;74445;55.252;61.092;2024-03-17T12:24:29;146168.31;;;4.31
84287;BMP280;74445;55.252;61.092;2024-03-17T12:26:57;146152.44;;;4.25
84287;BMP280;74445;55.252;61.092;2024-03-17T12:29:35;146140.28;;;4.20
84287;BMP280;74445;55.252;61.092;2024-03-17T12:32:24;146118.34;;;4.11
84287;BMP280;74445;55.252;61.092;2024-03-17T12:34:53;146085.47;;;3.97
84287;BMP280;74445;55.252;61.092;2024-03-17T12:39:47;146034.34;;;3.76
84287;BMP280;74445;55.252;61.092;2024-03-17T12:42:15;146028.25;;;3.74
84287;BMP280;74445;55.252;61.092;2024-03-17T12:44:50;146013.66;;;3.68
84287;BMP280;74445;55.252;61.092;2024-03-17T12:47:20;145984.44;;;3.56
84287;BMP280;74445;55.252;61.092;2024-03-17T12:52:18;145945.47;;;3.40
84287;BMP280;74445;55.252;61.092;2024-03-17T12:55:05;145926.00;;;3.32
84287;BMP280;74445;55.252;61.092;2024-03-17T12:58:11;145905.28;;;3.24
84287;BMP280;74445;55.252;61.092;2024-03-17T13:01:03;145888.22;;;3.17
84287;BMP280;74445;55.252;61.092;2024-03-17T13:03:36;145857.81;;;3.04
84287;BMP280;74445;55.252;61.092;2024-03-17T13:06:03;145834.69;;;2.95
84287;BMP280;74445;55.252;61.092;2024-03-17T13:08:35;145806.72;;;2.83
84287;BMP280;74445;55.252;61.092;2024-03-17T13:11:03;145778.69;;;2.72
84287;BMP280;74445;55.252;61.092;2024-03-17T13:13:35;145742.19;;;2.57
84287;BMP280;74445;55.252;61.092;2024-03-17T13:16:01;145708.19;;;2.43
84287;BMP280;74445;55.252;61.092;2024-03-17T13:18:27;145666.84;;;2.26
84287;BMP280;74445;55.252;61.092;2024-03-17T13:20:53;145620.63;;;2.07
84287;BMP280;74445;55.252;61.092;2024-03-17T13:23:20;145567.13;;;1.85
84287;BMP280;74445;55.252;61.092;2024-03-17T13:25:55;145509.94;;;1.62
84287;BMP280;74445;55.252;61.092;2024-03-17T13:28:21;145454.03;;;1.39
84287;BMP280;74445;55.252;61.092;2024-03-17T13:30:47;145404.22;;;1.19
84287;BMP280;74445;55.252;61.092;2024-03-17T13:33:14;145361.72;;;1.01
84287;BMP280;74445;55.252;61.092;2024-03-17T13:35:41;145311.88;;;0.81
84287;BMP280;74445;55.252;61.092;2024-03-17T13:38:09;145276.69;;;0.66
84287;BMP280;74445;55.252;61.092;2024-03-17T13:40:38;145235.38;;;0.49
84287;BMP280;74445;55.252;61.092;2024-03-17T13:43:05;145192.84;;;0.32
84287;BMP280;74445;55.252;61.092;2024-03-17T13:45:39;145160.09;;;0.18
84287;BMP280;74445;55.252;61.092;2024-03-17T13:48:06;145104.25;;;-0.04
84287;BMP280;74445;55.252;61.092;2024-03-17T13:50:39;145055.69;;;-0.24
84287;BMP280;74445;55.252;61.092;2024-03-17T13:53:08;145008.38;;;-0.44
84287;BMP280;74445;55.252;61.092;2024-03-17T13:55:34;144971.97;;;-0.59
84287;BMP280;74445;55.252;61.092;2024-03-17T13:58:01;144944.03;;;-0.70
84287;BMP280;74445;55.252;61.092;2024-03-17T14:00:29;144916.16;;;-0.82
84287;BMP280;74445;55.252;61.092;2024-03-17T14:02:57;144888.22;;;-0.93
84287;BMP280;74445;55.252;61.092;2024-03-17T14:05:24;144854.28;;;-1.07
84287;BMP280;74445;55.252;61.092;2024-03-17T14:07:54;144804.56;;;-1.27
84287;BMP280;74445;55.252;61.092;2024-03-17T14:10:23;144742.75;;;-1.53
84287;BMP280;74445;55.252;61.092;2024-03-17T14:12:49;144688.16;;;-1.75
84287;BMP280;74445;55.252;61.092;2024-03-17T14:15:16;144654.22;;;-1.89
84287;BMP280;74445;55.252;61.092;2024-03-17T14:17:47;144632.41;;;-1.98
84287;BMP280;74445;55.252;61.092;2024-03-17T14:20:14;144600.91;;;-2.11
84287;BMP280;74445;55.252;61.092;2024-03-17T14:22:45;144560.94;;;-2.28
84287;BMP280;74445;55.252;61.092;2024-03-17T14:25:19;144525.78;;;-2.42